Observation data for Denver City on 12/09/2018      Previous  Date  Next       Current Mesonet Observations  Soil Data  Daily Summary Page  Observations in Plain Language
KDVS 090600Z 08001KT M03/M03 A3028 RMK A01 T10271030  RH  098%=      5-min Rain = 0
KDVS 090605Z 08001KT M03/M03 A3028 RMK A01 T10281032  RH  098%=      5-min Rain = 0
KDVS 090610Z 08000KT M03/M03 A3028 RMK A01 T10281031  RH  098%=      5-min Rain = 0
KDVS 090615Z 08000KT M03/M03 A3028 RMK A01 T10291032  RH  098%=      5-min Rain = 0
KDVS 090620Z 08000KT M03/M03 A3028 RMK A01 T10301034  RH  098%=      5-min Rain = 0
KDVS 090625Z 05001KT M03/M04 A3028 RMK A01 T10311035  RH  098%=      5-min Rain = 0
KDVS 090630Z 05002KT M03/M04 A3028 RMK A01 T10331037  RH  098%=      5-min Rain = 0
KDVS 090635Z 02002KT M04/M04 A3028 RMK A01 T10351039  RH  097%=      5-min Rain = 0
KDVS 090640Z 02001KT M04/M04 A3028 RMK A01 T10361040  RH  098%=      5-min Rain = 0
KDVS 090645Z 02001KT M04/M04 A3028 RMK A01 T10361039  RH  098%=      5-min Rain = 0
KDVS 090650Z 02001KT M03/M04 A3027 RMK A01 T10341036  RH  099%=      5-min Rain = 0
KDVS 090655Z 02001KT M04/M04 A3027 RMK A01 T10361040  RH  098%=      5-min Rain = 0
KDVS 090700Z 02000KT M04/M04 A3027 RMK A01 T10391043  RH  098%=      5-min Rain = 0
KDVS 090705Z 02000KT M04/M04 A3027 RMK A01 T10401043  RH  098%=      5-min Rain = 0
KDVS 090710Z 02001KT M04/M04 A3027 RMK A01 T10411044  RH  098%=      5-min Rain = 0
KDVS 090715Z 01001KT M04/M04 A3027 RMK A01 T10411044  RH  098%=      5-min Rain = 0
KDVS 090720Z 00003KT M04/M05 A3027 RMK A01 T10421045  RH  098%=      5-min Rain = 0
KDVS 090725Z 00002KT M04/M05 A3027 RMK A01 T10431045  RH  098%=      5-min Rain = 0
KDVS 090730Z 00001KT M04/M05 A3027 RMK A01 T10421045  RH  099%=      5-min Rain = 0
KDVS 090735Z 34001KT M04/M05 A3027 RMK A01 T10421045  RH  099%=      5-min Rain = 0
KDVS 090740Z 33004KT M04/M05 A3027 RMK A01 T10441047  RH  098%=      5-min Rain = 0
KDVS 090745Z 32005KT M04/M05 A3027 RMK A01 T10441047  RH  099%=      5-min Rain = 0
KDVS 090750Z 33004KT M04/M05 A3027 RMK A01 T10441046  RH  099%=      5-min Rain = 0
KDVS 090755Z 33004KT M04/M05 A3027 RMK A01 T10441046  RH  099%=      5-min Rain = 0
KDVS 090800Z 33004KT M04/M05 A3027 RMK A01 T10441046  RH  099%=      5-min Rain = 0
KDVS 090805Z 33003KT M05/M05 A3027 RMK A01 T10461049  RH  098%=      5-min Rain = 0
KDVS 090810Z 33003KT M05/M05 A3027 RMK A01 T10461049  RH  098%=      5-min Rain = 0
KDVS 090815Z 33004KT M05/M05 A3027 RMK A01 T10451048  RH  098%=      5-min Rain = 0
KDVS 090820Z 33004KT M05/M05 A3027 RMK A01 T10451047  RH  098%=      5-min Rain = 0
KDVS 090825Z 33004KT M05/M05 A3027 RMK A01 T10451048  RH  098%=      5-min Rain = 0
KDVS 090830Z 33004KT M05/M05 A3027 RMK A01 T10461049  RH  098%=      5-min Rain = 0
KDVS 090835Z 32004KT M05/M05 A3027 RMK A01 T10461049  RH  098%=      5-min Rain = 0
KDVS 090840Z 31005KT M05/M05 A3027 RMK A01 T10461049  RH  098%=      5-min Rain = 0
KDVS 090845Z 31004KT M05/M05 A3027 RMK A01 T10451047  RH  098%=      5-min Rain = 0
KDVS 090850Z 30004KT M04/M05 A3027 RMK A01 T10441047  RH  098%=      5-min Rain = 0
KDVS 090855Z 32005KT M04/M05 A3027 RMK A01 T10431046  RH  098%=      5-min Rain = 0
KDVS 090900Z 32004KT M04/M05 A3027 RMK A01 T10441047  RH  098%=      5-min Rain = 0
KDVS 090905Z 33004KT M04/M05 A3026 RMK A01 T10441047  RH  098%=      5-min Rain = 0
KDVS 090910Z 33004KT M05/M05 A3026 RMK A01 T10461050  RH  097%=      5-min Rain = 0
KDVS 090915Z 33004KT M05/M05 A3027 RMK A01 T10471051  RH  098%=      5-min Rain = 0
KDVS 090920Z 33004KT M05/M05 A3027 RMK A01 T10481052  RH  097%=      5-min Rain = 0
KDVS 090925Z 33004KT M05/M05 A3027 RMK A01 T10491053  RH  097%=      5-min Rain = 0
KDVS 090930Z 32004KT M05/M05 A3027 RMK A01 T10501053  RH  097%=      5-min Rain = 0
KDVS 090935Z 32004KT M05/M05 A3027 RMK A01 T10501054  RH  097%=      5-min Rain = 0
KDVS 090940Z 32004KT M05/M05 A3027 RMK A01 T10501054  RH  097%=      5-min Rain = 0
KDVS 090945Z 31004KT M05/M05 A3027 RMK A01 T10501054  RH  097%=      5-min Rain = 0
KDVS 090950Z 31004KT M05/M05 A3027 RMK A01 T10501054  RH  097%=      5-min Rain = 0
KDVS 090955Z 31004KT M05/M05 A3027 RMK A01 T10501054  RH  097%=      5-min Rain = 0
KDVS 091000Z 31005KT M05/M05 A3027 RMK A01 T10501054  RH  097%=      5-min Rain = 0
KDVS 091005Z 32005KT M05/M05 A3027 RMK A01 T10501054  RH  097%=      5-min Rain = 0
KDVS 091010Z 33004KT M05/M05 A3027 RMK A01 T10501054  RH  097%=      5-min Rain = 0
KDVS 091015Z 33004KT M05/M06 A3027 RMK A01 T10511055  RH  097%=      5-min Rain = 0
KDVS 091020Z 34004KT M05/M06 A3027 RMK A01 T10521057  RH  097%=      5-min Rain = 0
KDVS 091025Z 35005KT M05/M06 A3027 RMK A01 T10541059  RH  096%=      5-min Rain = 0
KDVS 091030Z 35005KT M06/M06 A3027 RMK A01 T10561061  RH  096%=      5-min Rain = 0
KDVS 091035Z 35005KT M06/M06 A3027 RMK A01 T10561061  RH  096%=      5-min Rain = 0
KDVS 091040Z 35004KT M06/M06 A3026 RMK A01 T10561061  RH  096%=      5-min Rain = 0
KDVS 091045Z 34005KT M06/M06 A3027 RMK A01 T10551060  RH  097%=      5-min Rain = 0
KDVS 091050Z 34005KT M06/M06 A3027 RMK A01 T10551060  RH  097%=      5-min Rain = 0
KDVS 091055Z 34005KT M06/M06 A3027 RMK A01 T10551060  RH  096%=      5-min Rain = 0
KDVS 091100Z 34004KT M06/M06 A3027 RMK A01 T10561061  RH  096%=      5-min Rain = 0
KDVS 091105Z 34004KT M06/M06 A3027 RMK A01 T10571062  RH  096%=      5-min Rain = 0
KDVS 091110Z 33004KT M06/M06 A3027 RMK A01 T10571062  RH  096%=      5-min Rain = 0
KDVS 091115Z 33005KT M06/M06 A3027 RMK A01 T10561061  RH  096%=      5-min Rain = 0
KDVS 091120Z 33005KT M06/M06 A3028 RMK A01 T10561061  RH  096%=      5-min Rain = 0
KDVS 091125Z 32005KT M06/M06 A3028 RMK A01 T10561061  RH  096%=      5-min Rain = 0
KDVS 091130Z 32005KT M06/M06 A3028 RMK A01 T10551060  RH  097%=      5-min Rain = 0
KDVS 091135Z 32005KT M06/M06 A3028 RMK A01 T10551060  RH  097%=      5-min Rain = 0
KDVS 091140Z 32005KT M05/M06 A3028 RMK A01 T10541059  RH  097%=      5-min Rain = 0
KDVS 091145Z 33004KT M05/M06 A3029 RMK A01 T10541059  RH  096%=      5-min Rain = 0
KDVS 091150Z 33005KT M06/M06 A3029 RMK A01 T10551060  RH  096%=      5-min Rain = 0
KDVS 091155Z 33005KT M06/M06 A3029 RMK A01 T10551061  RH  096%=      5-min Rain = 0
KDVS 091200Z 33005KT M06/M06 A3029 RMK A01 T10561061  RH  096%=      5-min Rain = 0
KDVS 091205Z 33005KT M06/M06 A3029 RMK A01 T10551061  RH  096%=      5-min Rain = 0
KDVS 091210Z 32005KT M06/M06 A303 RMK A01 T10551060  RH  096%=      5-min Rain = 0
KDVS 091215Z 32005KT M06/M06 A303 RMK A01 T10551060  RH  096%=      5-min Rain = 0
KDVS 091220Z 32005KT M05/M06 A303 RMK A01 T10541059  RH  097%=      5-min Rain = 0
KDVS 091225Z 31005KT M05/M06 A303 RMK A01 T10531058  RH  097%=      5-min Rain = 0
KDVS 091230Z 31005KT M05/M06 A303 RMK A01 T10531057  RH  097%=      5-min Rain = 0
KDVS 091235Z 31005KT M05/M06 A3031 RMK A01 T10521057  RH  097%=      5-min Rain = 0
KDVS 091240Z 31005KT M05/M06 A3031 RMK A01 T10511056  RH  097%=      5-min Rain = 0
KDVS 091245Z 31005KT M05/M05 A3031 RMK A01 T10501054  RH  097%=      5-min Rain = 0
KDVS 091250Z 32005KT M05/M05 A3031 RMK A01 T10481051  RH  098%=      5-min Rain = 0
KDVS 091255Z 31005KT M05/M05 A3031 RMK A01 T10451049  RH  098%=      5-min Rain = 0
KDVS 091300Z 31005KT M04/M05 A3031 RMK A01 T10431046  RH  098%=      5-min Rain = 0
KDVS 091305Z 30004KT M04/M05 A3031 RMK A01 T10421045  RH  098%=      5-min Rain = 0
KDVS 091310Z 30004KT M04/M04 A3031 RMK A01 T10401043  RH  098%=      5-min Rain = 0
KDVS 091315Z 30004KT M04/M04 A3031 RMK A01 T10401043  RH  098%=      5-min Rain = 0
KDVS 091320Z 30004KT M04/M04 A3032 RMK A01 T10401043  RH  098%=      5-min Rain = 0
KDVS 091325Z 30004KT M04/M04 A3032 RMK A01 T10401042  RH  098%=      5-min Rain = 0
KDVS 091330Z 30004KT M04/M04 A3032 RMK A01 T10391042  RH  098%=      5-min Rain = 0
KDVS 091335Z 31004KT M04/M04 A3032 RMK A01 T10381041  RH  099%=      5-min Rain = 0
KDVS 091340Z 30004KT M04/M04 A3032 RMK A01 T10371040  RH  099%=      5-min Rain = 0
KDVS 091345Z 30004KT M04/M04 A3032 RMK A01 T10361039  RH  099%=      5-min Rain = 0
KDVS 091350Z 30005KT M04/M04 A3033 RMK A01 T10361038  RH  099%=      5-min Rain = 0
KDVS 091355Z 30005KT M04/M04 A3033 RMK A01 T10351037  RH  099%=      5-min Rain = 0
KDVS 091400Z 30005KT M03/M04 A3033 RMK A01 T10331035  RH  099%=      5-min Rain = 0
KDVS 091405Z 30005KT M03/M04 A3033 RMK A01 T10331035  RH  099%=      5-min Rain = 0
KDVS 091410Z 31005KT M03/M04 A3034 RMK A01 T10331035  RH  099%=      5-min Rain = 0
KDVS 091415Z 33005KT M03/M03 A3034 RMK A01 T10321034  RH  099%=      5-min Rain = 0
KDVS 091420Z 33004KT M03/M03 A3034 RMK A01 T10321034  RH  099%=      5-min Rain = 0
KDVS 091425Z 32004KT M03/M03 A3035 RMK A01 T10311033  RH  099%=      5-min Rain = 0
KDVS 091430Z 32003KT M03/M03 A3035 RMK A01 T10301032  RH  099%=      5-min Rain = 0
KDVS 091435Z 33004KT M03/M03 A3035 RMK A01 T10301032  RH  099%=      5-min Rain = 0
KDVS 091440Z 32004KT M03/M03 A3035 RMK A01 T10301032  RH  099%=      5-min Rain = 0
KDVS 091445Z 32004KT M03/M03 A3035 RMK A01 T10291031  RH  099%=      5-min Rain = 0
KDVS 091450Z 33004KT M03/M03 A3036 RMK A01 T10281030  RH  099%=      5-min Rain = 0
KDVS 091455Z 32003KT M03/M03 A3036 RMK A01 T10271029  RH  099%=      5-min Rain = 0
KDVS 091500Z 32004KT M03/M03 A3036 RMK A01 T10261028  RH  099%=      5-min Rain = 0
KDVS 091505Z 32004KT M03/M03 A3036 RMK A01 T10251027  RH  099%=      5-min Rain = 0
KDVS 091510Z 31004KT M02/M03 A3036 RMK A01 T10231026  RH  099%=      5-min Rain = 0
KDVS 091515Z 31004KT M02/M02 A3036 RMK A01 T10221024  RH  099%=      5-min Rain = 0
KDVS 091520Z 31004KT M02/M02 A3037 RMK A01 T10201023  RH  099%=      5-min Rain = 0
KDVS 091525Z 32004KT M02/M02 A3037 RMK A01 T10191022  RH  099%=      5-min Rain = 0
KDVS 091530Z 32004KT M02/M02 A3037 RMK A01 T10171021  RH  098%=      5-min Rain = 0
KDVS 091535Z 32003KT M02/M02 A3037 RMK A01 T10151019  RH  098%=      5-min Rain = 0
KDVS 091540Z 32003KT M01/M02 A3037 RMK A01 T10141019  RH  097%=      5-min Rain = 0
KDVS 091545Z 31003KT M01/M02 A3037 RMK A01 T10131018  RH  097%=      5-min Rain = 0
KDVS 091550Z 31003KT M01/M02 A3038 RMK A01 T10111018  RH  096%=      5-min Rain = 0
KDVS 091555Z 31003KT M01/M02 A3038 RMK A01 T10101017  RH  096%=      5-min Rain = 0
KDVS 091600Z 31003KT M01/M02 A3038 RMK A01 T10081016  RH  095%=      5-min Rain = 0
KDVS 091605Z 30002KT M01/M01 A3038 RMK A01 T10061014  RH  095%=      5-min Rain = 0
KDVS 091610Z 30002KT M00/M01 A3038 RMK A01 T10041013  RH  095%=      5-min Rain = 0
KDVS 091615Z 27002KT M00/M01 A3038 RMK A01 T10031012  RH  095%=      5-min Rain = 0
KDVS 091620Z 26002KT M00/M01 A3038 RMK A01 T10011010  RH  095%=      5-min Rain = 0
KDVS 091625Z 23002KT 00/M01 A3038 RMK A01 T00011008  RH  094%=      5-min Rain = 0
KDVS 091630Z 21002KT 00/M01 A3038 RMK A01 T00031007  RH  094%=      5-min Rain = 0
KDVS 091635Z 21003KT 01/M01 A3038 RMK A01 T00051006  RH  093%=      5-min Rain = 0
KDVS 091640Z 21003KT 01/M01 A3039 RMK A01 T00061006  RH  092%=      5-min Rain = 0.01
KDVS 091645Z 22003KT 01/M01 A3038 RMK A01 T00081006  RH  092%=      5-min Rain = 0
KDVS 091650Z 24002KT 01/M01 A3038 RMK A01 T00091005  RH  091%=      5-min Rain = 0
KDVS 091655Z 27002KT 01/M00 A3038 RMK A01 T00131001  RH  091%=      5-min Rain = 0
KDVS 091700Z 27001KT 02/M00 A3038 RMK A01 T00151001  RH  090%=      5-min Rain = 0
KDVS 091705Z 28002KT 02/00 A3038 RMK A01 T00190002  RH  090%=      5-min Rain = 0
KDVS 091710Z 30002KT 02/00 A3038 RMK A01 T00230004  RH  089%=      5-min Rain = 0
KDVS 091715Z 29003KT 03/01 A3038 RMK A01 T00270006  RH  087%=      5-min Rain = 0
KDVS 091720Z 31003KT 03/01 A3038 RMK A01 T00300005  RH  085%=      5-min Rain = 0
KDVS 091725Z 28002KT 03/00 A3038 RMK A01 T00320003  RH  083%=      5-min Rain = 0
KDVS 091730Z 29002KT 03/00 A3038 RMK A01 T00340000  RH  079%=      5-min Rain = 0.01
KDVS 091735Z 24001KT 04/00 A3038 RMK A01 T00370002  RH  078%=      5-min Rain = 0
KDVS 091740Z 23003KT 04/00 A3038 RMK A01 T00420002  RH  076%=      5-min Rain = 0.01
KDVS 091745Z 22004KT 04/M00 A3038 RMK A01 T00391002  RH  075%=      5-min Rain = 0
KDVS 091750Z 21003KT 04/M00 A3038 RMK A01 T00401002  RH  075%=      5-min Rain = 0
KDVS 091755Z 20004KT 04/M00 A3037 RMK A01 T00401003  RH  074%=      5-min Rain = 0
KDVS 091800Z 20003KT 04/M00 A3037 RMK A01 T00401003  RH  074%=      5-min Rain = 0.01
KDVS 091805Z 20003KT 04/M00 A3037 RMK A01 T00431002  RH  074%=      5-min Rain = 0
KDVS 091810Z 20003KT 05/M00 A3037 RMK A01 T00451003  RH  072%=      5-min Rain = 0
KDVS 091815Z 21003KT 05/00 A3037 RMK A01 T004700-0  RH  072%=      5-min Rain = 0
KDVS 091820Z 22003KT 05/M00 A3036 RMK A01 T00451002  RH  073%=      5-min Rain = 0
KDVS 091825Z 23003KT 05/00 A3036 RMK A01 T00470001  RH  073%=      5-min Rain = 0
KDVS 091830Z 24003KT 05/00 A3036 RMK A01 T00470001  RH  073%=      5-min Rain = 0
KDVS 091835Z 21003KT 05/00 A3035 RMK A01 T00480001  RH  072%=      5-min Rain = 0
KDVS 091840Z 21002KT 05/00 A3035 RMK A01 T00500001  RH  072%=      5-min Rain = 0
KDVS 091845Z 20003KT 05/00 A3035 RMK A01 T00510002  RH  071%=      5-min Rain = 0
KDVS 091850Z 21003KT 05/01 A3035 RMK A01 T00540006  RH  072%=      5-min Rain = 0
KDVS 091855Z 22004KT 05/01 A3035 RMK A01 T00540007  RH  072%=      5-min Rain = 0
KDVS 091900Z 23003KT 05/01 A3035 RMK A01 T00540007  RH  073%=      5-min Rain = 0
KDVS 091905Z 24003KT 05/01 A3034 RMK A01 T00510006  RH  073%=      5-min Rain = 0
KDVS 091910Z 26003KT 05/01 A3034 RMK A01 T00490006  RH  075%=      5-min Rain = 0
KDVS 091915Z 23003KT 05/01 A3034 RMK A01 T00540010  RH  074%=      5-min Rain = 0
KDVS 091920Z 24002KT 06/01 A3034 RMK A01 T00600008  RH  070%=      5-min Rain = 0
KDVS 091925Z 23003KT 06/01 A3034 RMK A01 T00610005  RH  068%=      5-min Rain = 0
KDVS 091930Z 21003KT 06/00 A3033 RMK A01 T00600004  RH  068%=      5-min Rain = 0
KDVS 091935Z 23002KT 06/01 A3033 RMK A01 T00600005  RH  068%=      5-min Rain = 0
KDVS 091940Z 23002KT 06/01 A3033 RMK A01 T00640007  RH  068%=      5-min Rain = 0
KDVS 091945Z 20003KT 07/01 A3033 RMK A01 T00710010  RH  066%=      5-min Rain = 0
KDVS 091950Z 24002KT 07/01 A3033 RMK A01 T00710009  RH  065%=      5-min Rain = 0
KDVS 091955Z 28002KT 07/00 A3032 RMK A01 T00670004  RH  065%=      5-min Rain = 0
KDVS 092000Z 35002KT 07/00 A3032 RMK A01 T00660004  RH  065%=      5-min Rain = 0
KDVS 092005Z 36002KT 06/00 A3032 RMK A01 T00600001  RH  067%=      5-min Rain = 0
KDVS 092010Z 28003KT 06/00 A3032 RMK A01 T00580004  RH  069%=      5-min Rain = 0
KDVS 092015Z 29003KT 06/01 A3032 RMK A01 T00580007  RH  071%=      5-min Rain = 0
KDVS 092020Z 28002KT 06/01 A3032 RMK A01 T00630008  RH  069%=      5-min Rain = 0
KDVS 092025Z 28003KT 07/01 A3032 RMK A01 T00650007  RH  068%=      5-min Rain = 0
KDVS 092030Z 27004KT 07/01 A3032 RMK A01 T00650010  RH  069%=      5-min Rain = 0
KDVS 092035Z 26003KT 07/01 A3032 RMK A01 T00650011  RH  069%=      5-min Rain = 0
KDVS 092040Z 29002KT 06/01 A3032 RMK A01 T00620009  RH  070%=      5-min Rain = 0
KDVS 092045Z 29002KT 06/01 A3032 RMK A01 T00590008  RH  071%=      5-min Rain = 0
KDVS 092050Z 29001KT 06/01 A3032 RMK A01 T00620008  RH  069%=      5-min Rain = 0
KDVS 092055Z 25003KT 07/01 A3032 RMK A01 T00680012  RH  068%=      5-min Rain = 0
KDVS 092100Z 23004KT 07/01 A3032 RMK A01 T00660009  RH  068%=      5-min Rain = 0
KDVS 092105Z 22004KT 07/01 A3031 RMK A01 T00690013  RH  069%=      5-min Rain = 0
KDVS 092110Z 22003KT 07/01 A3032 RMK A01 T00690009  RH  067%=      5-min Rain = 0
KDVS 092115Z 21003KT 07/01 A3031 RMK A01 T00710010  RH  066%=      5-min Rain = 0
KDVS 092120Z 20003KT 07/01 A3032 RMK A01 T00720009  RH  065%=      5-min Rain = 0
KDVS 092125Z 21003KT 07/01 A3032 RMK A01 T00730011  RH  066%=      5-min Rain = 0
KDVS 092130Z 22002KT 07/01 A3032 RMK A01 T00710008  RH  065%=      5-min Rain = 0
KDVS 092135Z 24003KT 07/01 A3032 RMK A01 T00720008  RH  065%=      5-min Rain = 0
KDVS 092140Z 23003KT 07/01 A3032 RMK A01 T00710008  RH  065%=      5-min Rain = 0
KDVS 092145Z 21003KT 07/01 A3032 RMK A01 T00690007  RH  065%=      5-min Rain = 0
KDVS 092150Z 21003KT 07/01 A3032 RMK A01 T00700009  RH  066%=      5-min Rain = 0
KDVS 092155Z 23003KT 07/01 A3032 RMK A01 T00720008  RH  065%=      5-min Rain = 0
KDVS 092200Z 23002KT 07/01 A3032 RMK A01 T00730009  RH  065%=      5-min Rain = 0
KDVS 092205Z 22002KT 07/01 A3032 RMK A01 T00730009  RH  065%=      5-min Rain = 0
KDVS 092210Z 22002KT 07/01 A3032 RMK A01 T00730008  RH  065%=      5-min Rain = 0
KDVS 092215Z 23002KT 07/01 A3032 RMK A01 T00710006  RH  064%=      5-min Rain = 0
KDVS 092220Z 24003KT 07/01 A3032 RMK A01 T00710009  RH  065%=      5-min Rain = 0
KDVS 092225Z 24001KT 07/01 A3032 RMK A01 T00710008  RH  065%=      5-min Rain = 0
KDVS 092230Z 22001KT 08/01 A3032 RMK A01 T00770009  RH  063%=      5-min Rain = 0
KDVS 092235Z 23002KT 08/01 A3032 RMK A01 T00750008  RH  064%=      5-min Rain = 0
KDVS 092240Z 24002KT 07/01 A3032 RMK A01 T00740008  RH  064%=      5-min Rain = 0
KDVS 092245Z 25001KT 07/01 A3032 RMK A01 T00720008  RH  065%=      5-min Rain = 0
KDVS 092250Z 26001KT 07/01 A3032 RMK A01 T00720008  RH  065%=      5-min Rain = 0
KDVS 092255Z 27000KT 07/01 A3032 RMK A01 T00730009  RH  065%=      5-min Rain = 0
KDVS 092300Z 26002KT 07/01 A3032 RMK A01 T00730010  RH  065%=      5-min Rain = 0
KDVS 092305Z 26002KT 07/01 A3032 RMK A01 T00700009  RH  066%=      5-min Rain = 0
KDVS 092310Z 28001KT 07/01 A3032 RMK A01 T00690009  RH  066%=      5-min Rain = 0
KDVS 092315Z 29000KT 07/01 A3032 RMK A01 T00700009  RH  066%=      5-min Rain = 0
KDVS 092320Z 36001KT 07/01 A3032 RMK A01 T00690007  RH  065%=      5-min Rain = 0
KDVS 092325Z 00002KT 07/01 A3032 RMK A01 T00650006  RH  067%=      5-min Rain = 0
KDVS 092330Z 00002KT 06/01 A3032 RMK A01 T00600006  RH  069%=      5-min Rain = 0
KDVS 092335Z 00002KT 06/01 A3032 RMK A01 T00560006  RH  071%=      5-min Rain = 0
KDVS 092340Z 00002KT 05/01 A3032 RMK A01 T00520005  RH  073%=      5-min Rain = 0
KDVS 092345Z 35002KT 05/01 A3032 RMK A01 T00500006  RH  074%=      5-min Rain = 0
KDVS 092350Z 33002KT 05/01 A3032 RMK A01 T00480005  RH  075%=      5-min Rain = 0
KDVS 092355Z 33002KT 05/01 A3032 RMK A01 T00470008  RH  077%=      5-min Rain = 0
KDVS 100000Z 32002KT 05/01 A3032 RMK A01 T00460008  RH  078%=      5-min Rain = 0
KDVS 100005Z 31002KT 05/01 A3033 RMK A01 T00450009  RH  078%=      5-min Rain = 0
KDVS 100010Z 32002KT 04/01 A3033 RMK A01 T00420008  RH  080%=      5-min Rain = 0
KDVS 100015Z 32002KT 04/01 A3032 RMK A01 T00400008  RH  081%=      5-min Rain = 0
KDVS 100020Z 31001KT 04/01 A3033 RMK A01 T00390007  RH  081%=      5-min Rain = 0
KDVS 100025Z 30001KT 04/01 A3033 RMK A01 T00380008  RH  082%=      5-min Rain = 0
KDVS 100030Z 27001KT 04/01 A3033 RMK A01 T00360007  RH  083%=      5-min Rain = 0
KDVS 100035Z 27001KT 03/01 A3033 RMK A01 T00340006  RH  083%=      5-min Rain = 0
KDVS 100040Z 27000KT 03/01 A3033 RMK A01 T00340006  RH  083%=      5-min Rain = 0
KDVS 100045Z 02001KT 03/01 A3033 RMK A01 T00340005  RH  082%=      5-min Rain = 0
KDVS 100050Z 04003KT 03/M00 A3034 RMK A01 T00261003  RH  082%=      5-min Rain = 0
KDVS 100055Z 05003KT 02/M00 A3034 RMK A01 T00211003  RH  085%=      5-min Rain = 0
KDVS 100100Z 06003KT 02/M00 A3034 RMK A01 T00201002  RH  086%=      5-min Rain = 0
KDVS 100105Z 07003KT 02/M00 A3034 RMK A01 T00201002  RH  086%=      5-min Rain = 0
KDVS 100110Z 07006KT 02/M01 A3034 RMK A01 T00181005  RH  086%=      5-min Rain = 0
KDVS 100115Z 07005KT 01/M01 A3035 RMK A01 T00141008  RH  086%=      5-min Rain = 0
KDVS 100120Z 06005KT 01/M01 A3035 RMK A01 T00101011  RH  087%=      5-min Rain = 0
KDVS 100125Z 06006KT 01/M01 A3036 RMK A01 T00071011  RH  088%=      5-min Rain = 0
KDVS 100130Z 05006KT 01/M01 A3036 RMK A01 T00051012  RH  089%=      5-min Rain = 0
KDVS 100135Z 06005KT 00/M01 A3036 RMK A01 T00041012  RH  090%=      5-min Rain = 0
KDVS 100140Z 07004KT 01/M01 A3036 RMK A01 T00051010  RH  091%=      5-min Rain = 0
KDVS 100145Z 08004KT 01/M01 A3036 RMK A01 T00071007  RH  091%=      5-min Rain = 0
KDVS 100150Z 11004KT 01/M01 A3036 RMK A01 T00091005  RH  091%=      5-min Rain = 0
KDVS 100155Z 13003KT 01/M00 A3036 RMK A01 T00101004  RH  091%=      5-min Rain = 0
KDVS 100200Z 13003KT 01/M00 A3036 RMK A01 T00101004  RH  091%=      5-min Rain = 0
KDVS 100205Z 15004KT 01/M01 A3035 RMK A01 T00081007  RH  091%=      5-min Rain = 0
KDVS 100210Z 20004KT 00/M01 A3035 RMK A01 T00021013  RH  091%=      5-min Rain = 0
KDVS 100215Z 19005KT 00/01 A3035 RMK A01 T00000-13  RH  092%=      5-min Rain = 0
KDVS 100220Z 18005KT 00/01 A3035 RMK A01 T00000-11  RH  093%=      5-min Rain = 0
KDVS 100225Z 18005KT 00/M01 A3035 RMK A01 T00011010  RH  093%=      5-min Rain = 0
KDVS 100230Z 17005KT 00/M01 A3035 RMK A01 T00021008  RH  094%=      5-min Rain = 0
KDVS 100235Z 15005KT 00/M01 A3035 RMK A01 T00031008  RH  094%=      5-min Rain = 0
KDVS 100240Z 17005KT 00/M01 A3035 RMK A01 T00011010  RH  093%=      5-min Rain = 0
KDVS 100245Z 19005KT 00/M01 A3035 RMK A01 T00011010  RH  093%=      5-min Rain = 0
KDVS 100250Z 20006KT 00/M01 A3035 RMK A01 T00011011  RH  093%=      5-min Rain = 0
KDVS 100255Z 21005KT 00/M01 A3036 RMK A01 T00011011  RH  093%=      5-min Rain = 0
KDVS 100300Z 22004KT 00/M01 A3037 RMK A01 T00021009  RH  093%=      5-min Rain = 0
KDVS 100305Z 25003KT 00/M01 A3037 RMK A01 T00011010  RH  093%=      5-min Rain = 0
KDVS 100310Z 23003KT M00/M01 A3037 RMK A01 T10011012  RH  093%=      5-min Rain = 0
KDVS 100315Z 22002KT M00/M01 A3037 RMK A01 T10021013  RH  093%=      5-min Rain = 0
KDVS 100320Z 24001KT M00/M01 A3038 RMK A01 T10031014  RH  093%=      5-min Rain = 0
KDVS 100325Z 24000KT M01/M02 A3038 RMK A01 T10081019  RH  093%=      5-min Rain = 0
KDVS 100330Z 32001KT M01/M03 A3038 RMK A01 T10131025  RH  093%=      5-min Rain = 0
KDVS 100335Z 02003KT M02/M03 A3038 RMK A01 T10171028  RH  093%=      5-min Rain = 0
KDVS 100340Z 02004KT M02/M03 A3038 RMK A01 T10221032  RH  093%=      5-min Rain = 0
KDVS 100345Z 36003KT M02/M03 A3038 RMK A01 T10241034  RH  094%=      5-min Rain = 0
KDVS 100350Z 34003KT M02/M03 A3038 RMK A01 T10221031  RH  095%=      5-min Rain = 0
KDVS 100355Z 35004KT M02/M03 A3038 RMK A01 T10201028  RH  095%=      5-min Rain = 0
KDVS 100400Z 35005KT M02/M03 A3038 RMK A01 T10231032  RH  094%=      5-min Rain = 0
KDVS 100405Z 00006KT M02/M03 A3039 RMK A01 T10241032  RH  095%=      5-min Rain = 0
KDVS 100410Z 35005KT M02/M03 A3039 RMK A01 T10221029  RH  096%=      5-min Rain = 0
KDVS 100415Z 35004KT M02/M02 A3039 RMK A01 T10181024  RH  097%=      5-min Rain = 0
KDVS 100420Z 34004KT M02/M02 A3039 RMK A01 T10161022  RH  097%=      5-min Rain = 0
KDVS 100425Z 33005KT M02/M03 A3039 RMK A01 T10181025  RH  096%=      5-min Rain = 0
KDVS 100430Z 32005KT M02/M02 A3039 RMK A01 T10181024  RH  096%=      5-min Rain = 0
KDVS 100435Z 31005KT M02/M02 A3039 RMK A01 T10171023  RH  097%=      5-min Rain = 0
KDVS 100440Z 31005KT M02/M02 A3039 RMK A01 T10161022  RH  097%=      5-min Rain = 0
KDVS 100445Z 31005KT M02/M02 A3039 RMK A01 T10151021  RH  097%=      5-min Rain = 0
KDVS 100450Z 32005KT M02/M02 A3039 RMK A01 T10161022  RH  096%=      5-min Rain = 0
KDVS 100455Z 31005KT M02/M02 A3039 RMK A01 T10161021  RH  097%=      5-min Rain = 0
KDVS 100500Z 31005KT M02/M02 A3039 RMK A01 T10151020  RH  097%=      5-min Rain = 0
KDVS 100505Z 30004KT M02/M02 A3039 RMK A01 T10151021  RH  097%=      5-min Rain = 0
KDVS 100510Z 30005KT M02/M02 A3039 RMK A01 T10151022  RH  096%=      5-min Rain = 0
KDVS 100515Z 30005KT M02/M02 A3039 RMK A01 T10161023  RH  096%=      5-min Rain = 0
KDVS 100520Z 30005KT M02/M02 A3039 RMK A01 T10161022  RH  096%=      5-min Rain = 0
KDVS 100525Z 30006KT M02/M02 A3039 RMK A01 T10171023  RH  096%=      5-min Rain = 0
KDVS 100530Z 30006KT M02/M02 A3039 RMK A01 T10181024  RH  096%=      5-min Rain = 0
KDVS 100535Z 30006KT M02/M02 A3039 RMK A01 T10181024  RH  096%=      5-min Rain = 0
KDVS 100540Z 31006KT M02/M02 A3039 RMK A01 T10181024  RH  097%=      5-min Rain = 0
KDVS 100545Z 31006KT M02/M02 A3039 RMK A01 T10171022  RH  097%=      5-min Rain = 0
KDVS 100550Z 31006KT M02/M02 A3039 RMK A01 T10171023  RH  097%=      5-min Rain = 0
KDVS 100555Z 31007KT M02/M02 A3039 RMK A01 T10151020  RH  097%=      5-min Rain = 0

Page generated in 0.0091 seconds.